Erwin, Tennessee
Current Conditions -  °F | °C
As of 7:55 AM on Monday 20 Oct 2014 (Local Time) from K0A9 Reporting Station
Clear Clear  
Wind Chill: 43°   Ceiling: Unl
Heat Index: 43°   Visibility: 10mi
Dew Point: 39°   Wind: 3mph
Humidity: 87%   Direction: 20°NNE
Pressure: 30.09"   Gusts: NA
Location:  36.14°N, 82.42°W
Report Text: K0A9 201155Z AUTO 02003KT 10SM CLR 06/04 A3009 RMK
Loading
Personal Weather Stations






























Interactive Weather Map
Tropical Storm Tracking
New forecast layout! Learn more

10-Day Weather Forecast

Advertisements
Track Severe Weather on mobile